createdAt,value
2019-02-14T00:00:56.842Z,7.10
2019-02-14T00:03:26.912Z,7.10
2019-02-14T00:05:56.735Z,7.10
2019-02-14T00:08:27.014Z,7.10
2019-02-14T00:10:56.917Z,7.10
2019-02-14T00:13:26.720Z,7.10
2019-02-14T00:15:57.450Z,7.10
2019-02-14T00:18:27.348Z,7.10
2019-02-14T00:20:57.274Z,7.00
2019-02-14T00:23:27.690Z,7.00
2019-02-14T00:25:57.597Z,7.00
2019-02-14T00:28:27.557Z,7.00
2019-02-14T00:30:58.844Z,7.10
2019-02-14T00:33:29.100Z,7.10
2019-02-14T00:35:58.813Z,7.00
2019-02-14T00:38:30.368Z,7.10
2019-02-14T00:41:00.427Z,7.10
2019-02-14T00:43:30.465Z,7.10
2019-02-14T00:46:00.801Z,7.00
2019-02-14T00:48:31.079Z,7.00
2019-02-14T00:51:01.107Z,7.00
2019-02-14T00:53:30.964Z,7.00
2019-02-14T00:56:01.554Z,7.00
2019-02-14T00:58:31.569Z,7.10
2019-02-14T01:01:01.540Z,7.10
2019-02-14T01:03:31.488Z,7.10
2019-02-14T01:06:01.336Z,7.10
2019-02-14T01:08:31.359Z,7.10
2019-02-14T01:11:01.227Z,7.00
2019-02-14T01:13:31.481Z,7.10
2019-02-14T01:16:01.786Z,7.00
2019-02-14T01:18:33.558Z,7.00
2019-02-14T01:21:03.611Z,7.10
2019-02-14T01:23:33.490Z,7.00
2019-02-14T01:26:03.487Z,7.00
2019-02-14T01:28:33.193Z,7.00
2019-02-14T01:31:03.193Z,7.00
2019-02-14T01:33:33.060Z,7.00
2019-02-14T01:36:03.009Z,7.00
2019-02-14T01:38:32.813Z,7.00
2019-02-14T01:41:02.555Z,7.00
2019-02-14T01:43:32.453Z,7.00
2019-02-14T01:46:02.784Z,7.00
2019-02-14T01:48:32.701Z,6.90
2019-02-14T01:51:02.977Z,6.90
2019-02-14T01:53:33.145Z,6.80
2019-02-14T01:56:03.015Z,6.90
2019-02-14T01:58:33.006Z,6.90
2019-02-14T02:01:02.899Z,7.00
2019-02-14T02:03:32.858Z,7.00
2019-02-14T02:06:03.037Z,6.90
2019-02-14T02:08:33.129Z,6.90
2019-02-14T02:11:03.850Z,6.90
2019-02-14T02:13:33.707Z,6.90
2019-02-14T02:16:03.375Z,6.90
2019-02-14T02:18:33.820Z,6.90
2019-02-14T02:21:03.801Z,6.90
2019-02-14T02:23:33.532Z,6.80
2019-02-14T02:26:03.650Z,6.90
2019-02-14T02:28:33.513Z,6.90
2019-02-14T02:31:03.329Z,6.80
2019-02-14T02:33:32.993Z,6.80
2019-02-14T02:36:02.660Z,6.90
2019-02-14T02:38:32.443Z,6.80
2019-02-14T02:41:02.105Z,6.90
2019-02-14T02:43:32.186Z,6.90
2019-02-14T02:46:02.402Z,6.90
2019-02-14T02:48:32.670Z,6.80
2019-02-14T02:51:02.444Z,6.90
2019-02-14T02:53:32.775Z,6.80
2019-02-14T02:56:02.558Z,6.90
2019-02-14T02:58:32.627Z,6.80
2019-02-14T03:01:02.628Z,6.80
2019-02-14T03:03:32.492Z,6.80
2019-02-14T03:06:10.261Z,6.80
2019-02-14T03:08:34.820Z,6.90
2019-02-14T03:11:05.218Z,6.90
2019-02-14T03:13:34.931Z,6.90
2019-02-14T03:16:05.740Z,6.80
2019-02-14T03:18:35.499Z,6.80
2019-02-14T03:21:05.351Z,6.80
2019-02-14T03:23:35.371Z,6.80
2019-02-14T03:26:05.197Z,6.70
2019-02-14T03:28:34.862Z,6.80
2019-02-14T03:31:05.112Z,6.80
2019-02-14T03:33:34.779Z,6.80
2019-02-14T03:36:04.455Z,6.80
2019-02-14T03:38:34.121Z,6.70
2019-02-14T03:41:03.842Z,6.80
2019-02-14T03:43:33.636Z,6.80
2019-02-14T03:46:03.343Z,6.80
2019-02-14T03:48:32.980Z,6.70
2019-02-14T03:51:02.673Z,6.70
2019-02-14T03:53:33.587Z,6.70
2019-02-14T03:56:03.310Z,6.70
2019-02-14T03:58:33.108Z,6.80
2019-02-14T04:01:02.907Z,6.70
2019-02-14T04:03:32.703Z,6.70
2019-02-14T04:06:02.322Z,6.60
2019-02-14T04:08:32.241Z,6.70
2019-02-14T04:11:01.948Z,6.70
2019-02-14T04:13:32.784Z,6.70
2019-02-14T04:16:04.464Z,6.60
2019-02-14T04:18:34.257Z,6.60
2019-02-14T04:21:04.504Z,6.60
2019-02-14T04:23:34.354Z,6.60
2019-02-14T04:26:04.199Z,6.60
2019-02-14T04:28:34.196Z,6.60
2019-02-14T04:31:04.079Z,6.50
2019-02-14T04:33:34.374Z,6.60
2019-02-14T04:36:04.076Z,6.60
2019-02-14T04:38:33.753Z,6.60
2019-02-14T04:41:03.621Z,6.50
2019-02-14T04:43:33.381Z,6.50
2019-02-14T04:46:03.206Z,6.50
2019-02-14T04:48:33.006Z,6.50
2019-02-14T04:51:03.555Z,6.50
2019-02-14T04:53:33.261Z,6.50
2019-02-14T04:56:03.339Z,6.50
2019-02-14T04:58:33.540Z,6.60
2019-02-14T05:01:03.357Z,6.60
2019-02-14T05:03:33.191Z,6.50
2019-02-14T05:06:03.383Z,6.50
2019-02-14T05:08:33.145Z,6.60
2019-02-14T05:11:03.183Z,6.50
2019-02-14T05:13:33.144Z,6.60
2019-02-14T05:16:03.790Z,6.60
2019-02-14T05:18:34.242Z,6.50
2019-02-14T05:21:04.069Z,6.50
2019-02-14T05:23:33.863Z,6.60
2019-02-14T05:26:03.548Z,6.60
2019-02-14T05:28:33.343Z,6.50
2019-02-14T05:31:02.962Z,6.60
2019-02-14T05:33:32.742Z,6.60
2019-02-14T05:36:02.290Z,6.60
2019-02-14T05:38:33.045Z,6.50
2019-02-14T05:41:02.687Z,6.50
2019-02-14T05:43:32.932Z,6.60
2019-02-14T05:46:02.662Z,6.60
2019-02-14T05:48:32.543Z,6.50
2019-02-14T05:51:02.350Z,6.50
2019-02-14T05:53:32.101Z,6.50
2019-02-14T05:56:01.797Z,6.50
2019-02-14T05:58:31.834Z,6.50
2019-02-14T06:01:02.014Z,6.50
2019-02-14T06:03:32.124Z,6.50
2019-02-14T06:06:01.934Z,6.50
2019-02-14T06:08:33.190Z,6.50
2019-02-14T06:11:03.091Z,6.60
2019-02-14T06:13:33.271Z,6.50
2019-02-14T06:16:04.517Z,6.60
2019-02-14T06:18:35.091Z,6.50
2019-02-14T06:21:05.185Z,6.60
2019-02-14T06:23:35.423Z,6.60
2019-02-14T06:26:05.574Z,6.60
2019-02-14T06:28:37.331Z,6.60
2019-02-14T06:31:08.049Z,6.60
2019-02-14T06:33:38.037Z,6.50
2019-02-14T06:36:09.462Z,6.60
2019-02-14T06:38:39.847Z,6.50
2019-02-14T06:41:09.935Z,6.60
2019-02-14T06:43:41.281Z,6.50
2019-02-14T06:46:15.270Z,6.60
2019-02-14T06:48:46.367Z,6.60
2019-02-14T06:51:19.019Z,6.60
2019-02-14T06:53:49.035Z,6.60
2019-02-14T06:56:18.772Z,6.60
2019-02-14T06:58:48.549Z,6.60
2019-02-14T07:01:18.280Z,6.60
2019-02-14T07:03:47.982Z,6.60
2019-02-14T07:06:17.685Z,6.60
2019-02-14T07:08:47.393Z,6.60
2019-02-14T07:11:17.058Z,6.70
2019-02-14T07:13:46.702Z,6.70
2019-02-14T07:16:16.436Z,6.70
2019-02-14T07:18:46.064Z,6.70
2019-02-14T07:21:15.768Z,6.60
2019-02-14T07:23:45.771Z,6.60
2019-02-14T07:26:15.798Z,6.70
2019-02-14T07:28:45.439Z,6.70
2019-02-14T07:31:15.600Z,6.70
2019-02-14T07:33:45.241Z,6.70
2019-02-14T07:36:14.901Z,6.70
2019-02-14T07:38:47.169Z,6.70
2019-02-14T07:41:18.882Z,6.80
2019-02-14T07:43:48.611Z,6.80
2019-02-14T07:46:22.824Z,6.70
2019-02-14T07:48:49.692Z,6.70
2019-02-14T07:51:19.383Z,6.70
2019-02-14T07:53:49.058Z,6.80
2019-02-14T07:56:18.770Z,6.80
2019-02-14T07:58:48.480Z,6.80
2019-02-14T08:01:18.258Z,6.90
2019-02-14T08:03:48.176Z,6.80
2019-02-14T08:06:18.179Z,6.80
2019-02-14T08:08:48.143Z,6.80
2019-02-14T08:11:18.391Z,6.90
2019-02-14T08:13:49.247Z,6.90
2019-02-14T08:16:19.208Z,7.00
2019-02-14T08:18:49.118Z,7.10
2019-02-14T08:21:18.756Z,7.10
2019-02-14T08:23:48.467Z,7.10
2019-02-14T08:26:18.519Z,7.10
2019-02-14T08:28:48.157Z,7.10
2019-02-14T08:31:17.997Z,7.20
2019-02-14T08:33:47.806Z,7.30
2019-02-14T08:36:17.810Z,7.30
2019-02-14T08:38:47.525Z,7.30
2019-02-14T08:41:17.236Z,7.30
2019-02-14T08:43:47.018Z,7.30
2019-02-14T08:46:18.675Z,7.40
2019-02-14T08:48:48.521Z,7.30
2019-02-14T08:51:18.213Z,7.40
2019-02-14T08:53:48.240Z,7.50
2019-02-14T08:56:18.195Z,7.60
2019-02-14T08:58:47.877Z,7.70
2019-02-14T09:01:17.601Z,7.70
2019-02-14T09:03:48.445Z,7.80
2019-02-14T09:06:18.452Z,7.80
2019-02-14T09:08:48.132Z,7.80
2019-02-14T09:11:18.556Z,7.80
2019-02-14T09:13:48.111Z,7.80
2019-02-14T09:16:17.865Z,7.90
2019-02-14T09:18:47.617Z,7.90
2019-02-14T09:21:17.221Z,8.10
2019-02-14T09:23:46.911Z,8.20
2019-02-14T09:26:16.651Z,8.30
2019-02-14T09:28:46.585Z,8.40
2019-02-14T09:31:16.230Z,8.60
2019-02-14T09:33:46.120Z,8.80
2019-02-14T09:36:15.821Z,8.70
2019-02-14T09:38:45.670Z,9.10
2019-02-14T09:41:15.725Z,9.40
2019-02-14T09:43:45.448Z,9.50
2019-02-14T09:46:15.642Z,9.40
2019-02-14T09:48:45.345Z,9.50
2019-02-14T09:51:15.261Z,8.80
2019-02-14T09:53:45.077Z,9.60
2019-02-14T09:56:15.611Z,10.10
2019-02-14T09:58:45.392Z,10.40
2019-02-14T10:01:15.097Z,10.80
2019-02-14T10:03:46.939Z,11.10
2019-02-14T10:06:16.442Z,11.10
2019-02-14T10:08:46.051Z,10.70
2019-02-14T10:11:16.117Z,10.50
2019-02-14T10:13:45.761Z,9.70
2019-02-14T10:16:15.423Z,9.80
2019-02-14T10:18:45.169Z,9.90
2019-02-14T10:21:14.879Z,9.90
2019-02-14T10:23:44.685Z,9.50
2019-02-14T10:26:14.492Z,9.10
2019-02-14T10:28:44.354Z,8.80
2019-02-14T10:31:14.135Z,8.90
2019-02-14T10:33:44.026Z,9.10
2019-02-14T10:36:13.929Z,9.00
2019-02-14T10:38:44.269Z,9.10
2019-02-14T10:41:14.193Z,9.20
2019-02-14T10:43:48.916Z,9.50
2019-02-14T10:46:15.454Z,9.60
2019-02-14T10:48:45.578Z,9.60
2019-02-14T10:51:16.206Z,9.60
2019-02-14T10:53:45.866Z,9.70
2019-02-14T10:56:16.135Z,9.50
2019-02-14T10:58:45.850Z,9.40
2019-02-14T11:01:15.657Z,9.00
2019-02-14T11:03:45.390Z,9.20
2019-02-14T11:06:15.007Z,9.40
2019-02-14T11:08:44.919Z,9.50
2019-02-14T11:11:14.674Z,10.50
2019-02-14T11:13:44.349Z,10.40
2019-02-14T11:16:14.103Z,10.50
2019-02-14T11:18:44.740Z,10.00
2019-02-14T11:21:14.724Z,10.10
2019-02-14T11:23:44.407Z,10.20
2019-02-14T11:26:14.490Z,10.10
2019-02-14T11:28:44.052Z,10.20
2019-02-14T11:31:13.769Z,10.10
2019-02-14T11:33:43.619Z,10.20
2019-02-14T11:36:13.269Z,10.80
2019-02-14T11:38:42.990Z,12.60
2019-02-14T11:41:12.697Z,14.40
2019-02-14T11:43:42.558Z,15.40
2019-02-14T11:46:12.168Z,15.90
2019-02-14T11:48:42.245Z,17.10
2019-02-14T11:51:12.101Z,18.40
2019-02-14T11:53:42.478Z,19.10
2019-02-14T11:56:12.376Z,19.60
2019-02-14T11:58:42.033Z,18.40
2019-02-14T12:01:11.813Z,16.80
2019-02-14T12:03:41.579Z,14.80
2019-02-14T12:06:17.389Z,13.40
2019-02-14T12:08:52.963Z,13.40
2019-02-14T12:11:14.378Z,12.40
2019-02-14T12:13:44.061Z,12.70
2019-02-14T12:16:13.925Z,13.30
2019-02-14T12:18:43.690Z,16.00
2019-02-14T12:21:13.396Z,16.90
2019-02-14T12:23:43.603Z,17.60
2019-02-14T12:26:13.448Z,18.10
2019-02-14T12:28:44.042Z,18.90
2019-02-14T12:31:13.839Z,19.30
2019-02-14T12:33:43.462Z,18.70
2019-02-14T12:36:13.159Z,17.50
2019-02-14T12:38:43.059Z,17.50
2019-02-14T12:41:12.888Z,17.30
2019-02-14T12:43:42.759Z,16.20
2019-02-14T12:46:12.407Z,15.90
2019-02-14T12:48:42.115Z,16.50
2019-02-14T12:51:11.851Z,17.10
2019-02-14T12:53:41.563Z,16.90
2019-02-14T12:56:11.957Z,17.00
2019-02-14T12:58:41.905Z,14.90
2019-02-14T13:01:11.589Z,15.20
2019-02-14T13:03:41.282Z,16.20
2019-02-14T13:06:11.795Z,15.90
2019-02-14T13:08:41.834Z,15.70
2019-02-14T13:11:11.637Z,13.80
2019-02-14T13:13:41.276Z,12.90
2019-02-14T13:16:11.085Z,13.50
2019-02-14T13:18:40.807Z,13.40
2019-02-14T13:21:10.518Z,14.70
2019-02-14T13:23:40.670Z,15.10
2019-02-14T13:26:10.581Z,15.30
2019-02-14T13:28:40.662Z,15.10
2019-02-14T13:31:10.458Z,14.80
2019-02-14T13:33:40.244Z,14.30
2019-02-14T13:36:09.924Z,13.80
2019-02-14T13:38:39.646Z,13.70
2019-02-14T13:41:09.714Z,14.10
2019-02-14T13:43:39.432Z,14.10
2019-02-14T13:46:09.222Z,14.00
2019-02-14T13:48:38.972Z,13.50
2019-02-14T13:51:09.504Z,13.50
2019-02-14T13:53:39.717Z,14.00
2019-02-14T13:56:09.446Z,13.90
2019-02-14T13:58:39.478Z,13.70
2019-02-14T14:01:09.227Z,13.70
2019-02-14T14:03:38.938Z,13.50
2019-02-14T14:06:09.197Z,13.30
2019-02-14T14:08:38.988Z,13.40
2019-02-14T14:11:08.909Z,13.50
2019-02-14T14:13:38.552Z,13.30
2019-02-14T14:16:08.368Z,13.30
2019-02-14T14:18:40.297Z,12.90
2019-02-14T14:21:11.021Z,12.70
2019-02-14T14:23:40.968Z,12.70
2019-02-14T14:26:11.308Z,12.40
2019-02-14T14:28:40.990Z,12.40
2019-02-14T14:31:10.700Z,12.40
2019-02-14T14:33:40.513Z,12.10
2019-02-14T14:36:10.297Z,11.90
2019-02-14T14:38:40.455Z,11.50
2019-02-14T14:41:10.172Z,11.40
2019-02-14T14:44:04.918Z,11.60
2019-02-14T14:46:46.013Z,11.70
2019-02-14T14:49:15.798Z,11.60
2019-02-14T14:51:45.670Z,11.40
2019-02-14T14:54:15.390Z,11.20
2019-02-14T14:56:45.355Z,11.00
2019-02-14T14:59:15.111Z,10.60
2019-02-14T15:01:45.420Z,10.60
2019-02-14T15:04:15.417Z,10.50
2019-02-14T15:06:45.263Z,10.50
2019-02-14T15:09:15.130Z,10.50
2019-02-14T15:11:44.799Z,10.50
2019-02-14T15:14:14.596Z,10.30
2019-02-14T15:16:44.430Z,10.40
2019-02-14T15:19:14.226Z,10.30
2019-02-14T15:21:44.397Z,10.10
2019-02-14T15:24:14.205Z,10.10
2019-02-14T15:26:43.936Z,10.00
2019-02-14T15:29:13.620Z,9.90
2019-02-14T15:31:43.358Z,9.80
2019-02-14T15:34:13.169Z,9.80
2019-02-14T15:36:42.967Z,9.70
2019-02-14T15:39:12.663Z,9.60
2019-02-14T15:41:42.723Z,9.50
2019-02-14T15:44:12.845Z,9.40
2019-02-14T15:46:42.817Z,9.20
2019-02-14T15:49:12.795Z,9.30
2019-02-14T15:51:43.807Z,9.20
2019-02-14T15:54:13.925Z,9.00
2019-02-14T15:56:43.593Z,8.90
2019-02-14T15:59:14.124Z,8.80
2019-02-14T16:01:44.394Z,8.70
2019-02-14T16:04:14.927Z,8.50
2019-02-14T16:06:44.672Z,8.40
2019-02-14T16:09:14.825Z,8.30
2019-02-14T16:11:45.955Z,8.20
2019-02-14T16:14:16.972Z,8.20
2019-02-14T16:16:48.151Z,8.00
2019-02-14T16:19:17.870Z,8.00
2019-02-14T16:21:47.632Z,8.00
2019-02-14T16:24:18.561Z,8.00
2019-02-14T16:26:48.441Z,7.70
2019-02-14T16:29:18.084Z,7.50
2019-02-14T16:31:47.882Z,7.50
2019-02-14T16:34:17.679Z,7.50
2019-02-14T16:36:47.910Z,7.40
2019-02-14T16:39:17.845Z,7.30
2019-02-14T16:41:47.923Z,7.10
2019-02-14T16:44:17.656Z,6.90
2019-02-14T16:46:47.579Z,6.80
2019-02-14T16:49:17.180Z,6.80
2019-02-14T16:51:47.371Z,6.70
2019-02-14T16:54:18.654Z,6.70
2019-02-14T16:56:48.718Z,6.70
2019-02-14T16:59:18.453Z,6.70
2019-02-14T17:01:48.011Z,6.50
2019-02-14T17:04:18.911Z,6.40
2019-02-14T17:06:48.608Z,6.30
2019-02-14T17:09:18.127Z,6.10
2019-02-14T17:11:47.678Z,6.00
2019-02-14T17:14:17.389Z,6.00
2019-02-14T17:16:46.874Z,5.90
2019-02-14T17:19:16.351Z,5.60
2019-02-14T17:21:45.817Z,5.60
2019-02-14T17:24:15.614Z,5.60
2019-02-14T17:26:45.294Z,5.40
2019-02-14T17:29:14.945Z,5.10
2019-02-14T17:31:44.410Z,5.20
2019-02-14T17:34:14.258Z,5.00
2019-02-14T17:36:44.018Z,5.00
2019-02-14T17:39:13.857Z,5.00
2019-02-14T17:41:43.715Z,5.00
2019-02-14T17:44:13.695Z,5.00
2019-02-14T17:46:43.337Z,5.10
2019-02-14T17:49:13.305Z,5.20
2019-02-14T17:51:42.782Z,5.20
2019-02-14T17:54:12.392Z,5.10
2019-02-14T17:56:41.946Z,5.10
2019-02-14T17:59:11.387Z,5.00
2019-02-14T18:01:40.831Z,4.80
2019-02-14T18:04:10.382Z,4.50
2019-02-14T18:06:39.880Z,4.50
2019-02-14T18:09:09.409Z,4.50
2019-02-14T18:11:39.131Z,4.50
2019-02-14T18:14:08.609Z,4.40
2019-02-14T18:16:38.315Z,4.40
2019-02-14T18:19:08.784Z,4.50
2019-02-14T18:21:38.339Z,4.50
2019-02-14T18:24:08.540Z,4.40
2019-02-14T18:26:39.168Z,4.40
2019-02-14T18:29:08.964Z,4.40
2019-02-14T18:31:39.364Z,4.30
2019-02-14T18:34:09.260Z,4.20
2019-02-14T18:36:38.781Z,4.10
2019-02-14T18:39:08.354Z,4.00
2019-02-14T18:41:38.692Z,4.00
2019-02-14T18:44:08.157Z,3.90
2019-02-14T18:46:37.686Z,3.80
2019-02-14T18:49:07.317Z,3.90
2019-02-14T18:51:36.899Z,3.80
2019-02-14T18:54:06.773Z,3.70
2019-02-14T18:56:36.255Z,3.80
2019-02-14T18:59:05.999Z,3.80
2019-02-14T19:07:47.649Z,3.60
2019-02-14T19:10:17.474Z,3.40
2019-02-14T19:19:27.281Z,3.40
2019-02-14T19:28:46.065Z,3.40
2019-02-14T19:34:27.692Z,3.20
2019-02-14T19:36:57.966Z,2.80
2019-02-14T19:39:59.114Z,2.60
2019-02-14T19:42:34.373Z,2.60
2019-02-14T19:45:14.101Z,2.70
2019-02-14T19:48:09.951Z,2.80
2019-02-14T19:51:00.141Z,2.80
2019-02-14T19:53:37.101Z,2.90
2019-02-14T19:56:10.559Z,2.90
2019-02-14T19:59:06.860Z,2.90
2019-02-14T20:01:26.402Z,2.80
2019-02-14T20:04:07.053Z,2.80
2019-02-14T20:06:37.127Z,2.70
2019-02-14T20:09:08.531Z,2.60
2019-02-14T20:11:38.970Z,2.50
2019-02-14T20:14:10.259Z,2.50
2019-02-14T20:16:52.080Z,2.50
2019-02-14T20:19:57.641Z,2.50
2019-02-14T20:22:25.262Z,2.50
2019-02-14T20:25:18.824Z,2.40
2019-02-14T20:27:50.075Z,2.40
2019-02-14T20:30:41.336Z,2.30
2019-02-14T20:33:19.587Z,2.30
2019-02-14T20:35:55.072Z,2.20
2019-02-14T20:38:30.907Z,2.10
2019-02-14T20:41:02.282Z,2.10
2019-02-14T20:43:44.226Z,2.10
2019-02-14T20:46:13.998Z,2.10
2019-02-14T20:48:47.213Z,2.00
2019-02-14T20:51:22.485Z,2.00
2019-02-14T20:53:54.456Z,1.90
2019-02-14T20:56:28.113Z,1.90
2019-02-14T20:58:57.891Z,1.80
2019-02-14T21:01:27.536Z,1.70
2019-02-14T21:03:57.435Z,1.70
2019-02-14T21:06:26.947Z,1.70
2019-02-14T21:08:57.497Z,1.50
2019-02-14T21:11:27.307Z,1.30
2019-02-14T21:13:57.574Z,1.20
2019-02-14T21:16:27.227Z,1.30
2019-02-14T21:18:56.954Z,1.40
2019-02-14T21:21:26.634Z,1.50
2019-02-14T21:23:56.281Z,1.20
2019-02-14T21:26:25.968Z,1.20
2019-02-14T21:28:55.670Z,1.30
2019-02-14T21:31:25.374Z,1.40
2019-02-14T21:33:55.083Z,1.40
2019-02-14T21:36:24.760Z,1.40
2019-02-14T21:38:54.714Z,1.40
2019-02-14T21:41:25.925Z,1.40
2019-02-14T21:43:55.572Z,1.30
2019-02-14T21:46:25.168Z,1.20
2019-02-14T21:48:55.121Z,1.20
2019-02-14T21:51:24.767Z,1.20
2019-02-14T21:53:54.698Z,1.30
2019-02-14T21:56:24.432Z,1.30
2019-02-14T21:58:54.111Z,1.30
2019-02-14T22:01:25.644Z,1.20
2019-02-14T22:03:55.532Z,1.20
2019-02-14T22:06:25.208Z,1.20
2019-02-14T22:08:54.836Z,1.20
2019-02-14T22:11:24.502Z,1.10
2019-02-14T22:13:54.185Z,1.10
2019-02-14T22:16:24.886Z,1.00
2019-02-14T22:18:54.661Z,1.10
2019-02-14T22:21:24.277Z,1.00
2019-02-14T22:23:53.780Z,0.90
2019-02-14T22:26:23.762Z,0.80
2019-02-14T22:28:53.364Z,0.90
2019-02-14T22:31:23.016Z,0.90
2019-02-14T22:33:52.700Z,0.90
2019-02-14T22:36:22.284Z,0.90
2019-02-14T22:38:51.836Z,0.80
2019-02-14T22:41:21.605Z,0.60
2019-02-14T22:43:51.157Z,0.50
2019-02-14T22:46:20.713Z,0.50
2019-02-14T22:48:50.604Z,0.60
2019-02-14T22:51:21.706Z,0.60
2019-02-14T22:53:51.620Z,0.70
2019-02-14T22:56:21.520Z,0.70
2019-02-14T22:58:51.192Z,0.70
2019-02-14T23:01:20.803Z,0.60
2019-02-14T23:03:51.164Z,0.40
2019-02-14T23:06:20.706Z,0.20
2019-02-14T23:08:50.154Z,0.20
2019-02-14T23:11:19.659Z,0.30
2019-02-14T23:13:49.164Z,0.30
2019-02-14T23:16:18.621Z,0.40
2019-02-14T23:18:48.318Z,0.40
2019-02-14T23:21:17.834Z,0.40
2019-02-14T23:23:47.296Z,0.30
2019-02-14T23:26:16.768Z,0.30
2019-02-14T23:28:46.288Z,0.20
2019-02-14T23:31:15.807Z,0.20
2019-02-14T23:33:45.401Z,0.20
2019-02-14T23:36:14.834Z,0.30
2019-02-14T23:38:44.336Z,0.10
2019-02-14T23:41:13.840Z,0.00
2019-02-14T23:43:43.328Z,-0.10
2019-02-14T23:46:12.827Z,-0.10
2019-02-14T23:48:42.312Z,-0.30
2019-02-14T23:51:11.797Z,-0.20
2019-02-14T23:53:41.304Z,-0.40
2019-02-14T23:56:12.211Z,-0.20
2019-02-14T23:58:42.084Z,-0.30
